sensor_id;sensor_type;location;lat;lon;timestamp;P1;durP1;ratioP1;P2;durP2;ratioP2
30743;SDS011;17486;46.738;7.622;2023-01-26T00:00:53;40.05;;;22.90;;
30743;SDS011;17486;46.738;7.622;2023-01-26T00:03:19;37.85;;;23.45;;
30743;SDS011;17486;46.738;7.622;2023-01-26T00:05:45;39.53;;;24.02;;
30743;SDS011;17486;46.738;7.622;2023-01-26T00:08:11;37.83;;;24.58;;
30743;SDS011;17486;46.738;7.622;2023-01-26T00:10:37;38.50;;;24.90;;
30743;SDS011;17486;46.738;7.622;2023-01-26T00:13:04;36.95;;;24.05;;
30743;SDS011;17486;46.738;7.622;2023-01-26T00:15:31;36.00;;;24.00;;
30743;SDS011;17486;46.738;7.622;2023-01-26T00:17:57;36.15;;;23.40;;
30743;SDS011;17486;46.738;7.622;2023-01-26T00:20:24;39.28;;;23.63;;
30743;SDS011;17486;46.738;7.622;2023-01-26T00:22:49;37.53;;;23.70;;
30743;SDS011;17486;46.738;7.622;2023-01-26T00:25:15;40.92;;;25.00;;
30743;SDS011;17486;46.738;7.622;2023-01-26T00:27:40;40.25;;;25.02;;
30743;SDS011;17486;46.738;7.622;2023-01-26T00:30:06;39.45;;;24.15;;
30743;SDS011;17486;46.738;7.622;2023-01-26T00:32:33;38.67;;;23.88;;
30743;SDS011;17486;46.738;7.622;2023-01-26T00:34:59;36.90;;;22.88;;
30743;SDS011;17486;46.738;7.622;2023-01-26T00:37:25;38.80;;;25.35;;
30743;SDS011;17486;46.738;7.622;2023-01-26T00:39:50;40.03;;;24.52;;
30743;SDS011;17486;46.738;7.622;2023-01-26T00:42:16;35.38;;;23.25;;
30743;SDS011;17486;46.738;7.622;2023-01-26T00:44:41;40.78;;;25.20;;
30743;SDS011;17486;46.738;7.622;2023-01-26T00:47:08;39.17;;;24.17;;
30743;SDS011;17486;46.738;7.622;2023-01-26T00:49:35;35.78;;;22.75;;
30743;SDS011;17486;46.738;7.622;2023-01-26T00:52:01;36.55;;;24.08;;
30743;SDS011;17486;46.738;7.622;2023-01-26T00:54:27;37.97;;;23.50;;
30743;SDS011;17486;46.738;7.622;2023-01-26T00:56:53;35.20;;;22.63;;
30743;SDS011;17486;46.738;7.622;2023-01-26T00:59:19;37.72;;;23.45;;
30743;SDS011;17486;46.738;7.622;2023-01-26T01:01:45;36.05;;;23.02;;
30743;SDS011;17486;46.738;7.622;2023-01-26T01:04:11;35.33;;;23.33;;
30743;SDS011;17486;46.738;7.622;2023-01-26T01:06:37;37.20;;;23.17;;
30743;SDS011;17486;46.738;7.622;2023-01-26T01:09:02;36.97;;;23.80;;
30743;SDS011;17486;46.738;7.622;2023-01-26T01:11:28;37.33;;;23.05;;
30743;SDS011;17486;46.738;7.622;2023-01-26T01:13:53;39.90;;;23.92;;
30743;SDS011;17486;46.738;7.622;2023-01-26T01:16:19;39.90;;;24.40;;
30743;SDS011;17486;46.738;7.622;2023-01-26T01:18:44;39.17;;;23.70;;
30743;SDS011;17486;46.738;7.622;2023-01-26T01:21:11;39.05;;;23.63;;
30743;SDS011;17486;46.738;7.622;2023-01-26T01:23:38;40.17;;;24.67;;
30743;SDS011;17486;46.738;7.622;2023-01-26T01:26:04;36.47;;;22.77;;
30743;SDS011;17486;46.738;7.622;2023-01-26T01:28:30;39.65;;;24.67;;
30743;SDS011;17486;46.738;7.622;2023-01-26T01:30:56;38.20;;;23.80;;
30743;SDS011;17486;46.738;7.622;2023-01-26T01:33:21;37.20;;;23.58;;
30743;SDS011;17486;46.738;7.622;2023-01-26T01:35:54;40.50;;;24.35;;
30743;SDS011;17486;46.738;7.622;2023-01-26T01:38:24;37.97;;;22.70;;
30743;SDS011;17486;46.738;7.622;2023-01-26T01:40:50;37.28;;;23.00;;
30743;SDS011;17486;46.738;7.622;2023-01-26T01:43:16;37.67;;;22.90;;
30743;SDS011;17486;46.738;7.622;2023-01-26T01:45:51;38.65;;;23.60;;
30743;SDS011;17486;46.738;7.622;2023-01-26T01:51:22;43.30;;;24.90;;
30743;SDS011;17486;46.738;7.622;2023-01-26T01:53:54;40.10;;;24.08;;
30743;SDS011;17486;46.738;7.622;2023-01-26T01:56:22;42.22;;;25.13;;
30743;SDS011;17486;46.738;7.622;2023-01-26T01:58:50;39.33;;;24.55;;
30743;SDS011;17486;46.738;7.622;2023-01-26T02:01:19;41.90;;;26.02;;
30743;SDS011;17486;46.738;7.622;2023-01-26T02:03:44;40.70;;;24.30;;
30743;SDS011;17486;46.738;7.622;2023-01-26T02:06:15;39.67;;;24.23;;
30743;SDS011;17486;46.738;7.622;2023-01-26T02:08:48;38.20;;;24.10;;
30743;SDS011;17486;46.738;7.622;2023-01-26T02:11:18;39.55;;;23.73;;
30743;SDS011;17486;46.738;7.622;2023-01-26T02:13:47;36.70;;;22.50;;
30743;SDS011;17486;46.738;7.622;2023-01-26T02:16:14;38.30;;;22.60;;
30743;SDS011;17486;46.738;7.622;2023-01-26T02:18:40;36.03;;;21.73;;
30743;SDS011;17486;46.738;7.622;2023-01-26T02:21:06;40.08;;;24.02;;
30743;SDS011;17486;46.738;7.622;2023-01-26T02:26:29;41.50;;;24.55;;
30743;SDS011;17486;46.738;7.622;2023-01-26T02:28:57;39.22;;;23.90;;
30743;SDS011;17486;46.738;7.622;2023-01-26T02:31:23;40.25;;;23.52;;
30743;SDS011;17486;46.738;7.622;2023-01-26T02:33:50;41.47;;;23.75;;
30743;SDS011;17486;46.738;7.622;2023-01-26T02:36:23;40.58;;;24.60;;
30743;SDS011;17486;46.738;7.622;2023-01-26T02:41:54;40.05;;;24.13;;
30743;SDS011;17486;46.738;7.622;2023-01-26T02:44:38;42.88;;;24.85;;
30743;SDS011;17486;46.738;7.622;2023-01-26T02:47:09;41.78;;;23.95;;
30743;SDS011;17486;46.738;7.622;2023-01-26T02:49:39;40.58;;;24.23;;
30743;SDS011;17486;46.738;7.622;2023-01-26T02:52:18;39.30;;;24.83;;
30743;SDS011;17486;46.738;7.622;2023-01-26T02:54:46;40.05;;;24.70;;
30743;SDS011;17486;46.738;7.622;2023-01-26T02:57:30;42.22;;;24.90;;
30743;SDS011;17486;46.738;7.622;2023-01-26T02:59:56;43.97;;;26.30;;
30743;SDS011;17486;46.738;7.622;2023-01-26T03:02:21;44.50;;;25.45;;
30743;SDS011;17486;46.738;7.622;2023-01-26T03:04:47;41.35;;;24.58;;
30743;SDS011;17486;46.738;7.622;2023-01-26T03:07:12;39.28;;;24.65;;
30743;SDS011;17486;46.738;7.622;2023-01-26T03:09:38;40.53;;;24.55;;
30743;SDS011;17486;46.738;7.622;2023-01-26T03:12:03;40.13;;;24.58;;
30743;SDS011;17486;46.738;7.622;2023-01-26T03:14:29;42.22;;;24.90;;
30743;SDS011;17486;46.738;7.622;2023-01-26T03:16:54;41.25;;;24.70;;
30743;SDS011;17486;46.738;7.622;2023-01-26T03:19:20;40.47;;;24.20;;
30743;SDS011;17486;46.738;7.622;2023-01-26T03:22:04;39.78;;;24.27;;
30743;SDS011;17486;46.738;7.622;2023-01-26T03:24:49;41.47;;;25.13;;
30743;SDS011;17486;46.738;7.622;2023-01-26T03:27:36;41.28;;;24.65;;
30743;SDS011;17486;46.738;7.622;2023-01-26T03:30:07;41.08;;;24.27;;
30743;SDS011;17486;46.738;7.622;2023-01-26T03:32:33;40.88;;;24.52;;
30743;SDS011;17486;46.738;7.622;2023-01-26T03:34:59;40.05;;;24.13;;
30743;SDS011;17486;46.738;7.622;2023-01-26T03:37:24;43.13;;;25.63;;
30743;SDS011;17486;46.738;7.622;2023-01-26T03:39:50;42.95;;;25.33;;
30743;SDS011;17486;46.738;7.622;2023-01-26T03:42:35;42.67;;;25.90;;
30743;SDS011;17486;46.738;7.622;2023-01-26T03:45:20;40.08;;;24.90;;
30743;SDS011;17486;46.738;7.622;2023-01-26T03:48:05;40.95;;;24.08;;
30743;SDS011;17486;46.738;7.622;2023-01-26T03:50:50;44.97;;;26.05;;
30743;SDS011;17486;46.738;7.622;2023-01-26T03:53:34;40.80;;;25.58;;
30743;SDS011;17486;46.738;7.622;2023-01-26T03:56:18;38.10;;;23.90;;
30743;SDS011;17486;46.738;7.622;2023-01-26T03:58:48;40.95;;;24.73;;
30743;SDS011;17486;46.738;7.622;2023-01-26T04:01:18;40.03;;;24.05;;
30743;SDS011;17486;46.738;7.622;2023-01-26T04:03:49;39.58;;;24.05;;
30743;SDS011;17486;46.738;7.622;2023-01-26T04:06:33;41.03;;;24.33;;
30743;SDS011;17486;46.738;7.622;2023-01-26T04:09:19;44.05;;;25.15;;
30743;SDS011;17486;46.738;7.622;2023-01-26T04:11:44;40.55;;;22.83;;
30743;SDS011;17486;46.738;7.622;2023-01-26T04:14:11;42.20;;;24.52;;
30743;SDS011;17486;46.738;7.622;2023-01-26T04:16:56;39.92;;;23.92;;
30743;SDS011;17486;46.738;7.622;2023-01-26T04:19:41;43.25;;;24.05;;
30743;SDS011;17486;46.738;7.622;2023-01-26T04:22:25;40.65;;;23.70;;
30743;SDS011;17486;46.738;7.622;2023-01-26T04:24:51;44.50;;;25.13;;
30743;SDS011;17486;46.738;7.622;2023-01-26T04:27:16;41.08;;;24.33;;
30743;SDS011;17486;46.738;7.622;2023-01-26T04:29:41;40.15;;;23.30;;
30743;SDS011;17486;46.738;7.622;2023-01-26T04:32:07;39.80;;;23.35;;
30743;SDS011;17486;46.738;7.622;2023-01-26T04:34:32;42.15;;;23.75;;
30743;SDS011;17486;46.738;7.622;2023-01-26T04:36:58;39.17;;;23.63;;
30743;SDS011;17486;46.738;7.622;2023-01-26T04:39:23;39.95;;;23.48;;
30743;SDS011;17486;46.738;7.622;2023-01-26T04:41:49;36.13;;;21.50;;
30743;SDS011;17486;46.738;7.622;2023-01-26T04:44:14;38.75;;;22.60;;
30743;SDS011;17486;46.738;7.622;2023-01-26T04:46:40;37.30;;;21.40;;
30743;SDS011;17486;46.738;7.622;2023-01-26T04:49:06;38.97;;;22.63;;
30743;SDS011;17486;46.738;7.622;2023-01-26T04:51:32;35.33;;;21.63;;
30743;SDS011;17486;46.738;7.622;2023-01-26T04:53:58;33.38;;;20.67;;
30743;SDS011;17486;46.738;7.622;2023-01-26T04:56:24;36.20;;;21.60;;
30743;SDS011;17486;46.738;7.622;2023-01-26T04:58:58;32.03;;;18.70;;
30743;SDS011;17486;46.738;7.622;2023-01-26T05:01:24;33.13;;;19.08;;
30743;SDS011;17486;46.738;7.622;2023-01-26T05:03:50;34.72;;;20.45;;
30743;SDS011;17486;46.738;7.622;2023-01-26T05:06:16;34.08;;;19.83;;
30743;SDS011;17486;46.738;7.622;2023-01-26T05:08:42;34.28;;;20.33;;
30743;SDS011;17486;46.738;7.622;2023-01-26T05:11:07;32.90;;;19.75;;
30743;SDS011;17486;46.738;7.622;2023-01-26T05:13:33;36.38;;;20.70;;
30743;SDS011;17486;46.738;7.622;2023-01-26T05:16:00;36.95;;;21.88;;
30743;SDS011;17486;46.738;7.622;2023-01-26T05:18:26;38.22;;;21.83;;
30743;SDS011;17486;46.738;7.622;2023-01-26T05:20:51;38.30;;;22.40;;
30743;SDS011;17486;46.738;7.622;2023-01-26T05:23:17;33.63;;;19.90;;
30743;SDS011;17486;46.738;7.622;2023-01-26T05:25:42;36.83;;;21.38;;
30743;SDS011;17486;46.738;7.622;2023-01-26T05:28:07;36.90;;;21.33;;
30743;SDS011;17486;46.738;7.622;2023-01-26T05:30:33;35.55;;;21.23;;
30743;SDS011;17486;46.738;7.622;2023-01-26T05:32:59;33.75;;;20.23;;
30743;SDS011;17486;46.738;7.622;2023-01-26T05:35:25;36.42;;;21.70;;
30743;SDS011;17486;46.738;7.622;2023-01-26T05:37:51;38.25;;;22.70;;
30743;SDS011;17486;46.738;7.622;2023-01-26T05:40:16;35.55;;;21.75;;
30743;SDS011;17486;46.738;7.622;2023-01-26T05:42:42;37.47;;;21.80;;
30743;SDS011;17486;46.738;7.622;2023-01-26T05:45:08;36.63;;;22.02;;
30743;SDS011;17486;46.738;7.622;2023-01-26T05:47:33;38.58;;;22.98;;
30743;SDS011;17486;46.738;7.622;2023-01-26T05:49:59;39.30;;;23.05;;
30743;SDS011;17486;46.738;7.622;2023-01-26T05:52:24;38.13;;;22.30;;
30743;SDS011;17486;46.738;7.622;2023-01-26T05:54:50;38.45;;;21.35;;
30743;SDS011;17486;46.738;7.622;2023-01-26T05:57:16;38.72;;;23.27;;
30743;SDS011;17486;46.738;7.622;2023-01-26T05:59:41;37.97;;;21.95;;
30743;SDS011;17486;46.738;7.622;2023-01-26T06:02:07;39.20;;;22.25;;
30743;SDS011;17486;46.738;7.622;2023-01-26T06:04:35;35.85;;;22.30;;
30743;SDS011;17486;46.738;7.622;2023-01-26T06:07:00;39.33;;;22.60;;
30743;SDS011;17486;46.738;7.622;2023-01-26T06:09:26;35.53;;;20.58;;
30743;SDS011;17486;46.738;7.622;2023-01-26T06:11:51;32.30;;;20.02;;
30743;SDS011;17486;46.738;7.622;2023-01-26T06:14:17;35.20;;;20.60;;
30743;SDS011;17486;46.738;7.622;2023-01-26T06:16:42;34.50;;;20.02;;
30743;SDS011;17486;46.738;7.622;2023-01-26T06:19:08;37.20;;;21.52;;
30743;SDS011;17486;46.738;7.622;2023-01-26T06:21:33;38.78;;;22.65;;
30743;SDS011;17486;46.738;7.622;2023-01-26T06:23:59;35.08;;;21.00;;
30743;SDS011;17486;46.738;7.622;2023-01-26T06:26:24;37.10;;;21.45;;
30743;SDS011;17486;46.738;7.622;2023-01-26T06:28:50;39.00;;;22.70;;
30743;SDS011;17486;46.738;7.622;2023-01-26T06:31:17;39.88;;;24.25;;
30743;SDS011;17486;46.738;7.622;2023-01-26T06:33:42;64.70;;;39.55;;
30743;SDS011;17486;46.738;7.622;2023-01-26T06:36:09;87.82;;;52.58;;
30743;SDS011;17486;46.738;7.622;2023-01-26T06:38:37;110.55;;;65.30;;
30743;SDS011;17486;46.738;7.622;2023-01-26T06:41:04;107.85;;;62.47;;
30743;SDS011;17486;46.738;7.622;2023-01-26T06:43:31;81.53;;;47.10;;
30743;SDS011;17486;46.738;7.622;2023-01-26T06:45:58;53.10;;;29.92;;
30743;SDS011;17486;46.738;7.622;2023-01-26T06:48:24;103.88;;;62.92;;
30743;SDS011;17486;46.738;7.622;2023-01-26T06:50:50;87.03;;;51.53;;
30743;SDS011;17486;46.738;7.622;2023-01-26T06:53:37;163.98;;;104.47;;
30743;SDS011;17486;46.738;7.622;2023-01-26T06:56:05;185.90;;;108.50;;
30743;SDS011;17486;46.738;7.622;2023-01-26T06:58:30;135.63;;;78.50;;
30743;SDS011;17486;46.738;7.622;2023-01-26T07:00:56;81.25;;;45.08;;
30743;SDS011;17486;46.738;7.622;2023-01-26T07:03:22;175.80;;;113.57;;
30743;SDS011;17486;46.738;7.622;2023-01-26T07:05:47;152.63;;;92.65;;
30743;SDS011;17486;46.738;7.622;2023-01-26T07:08:13;122.30;;;73.72;;
30743;SDS011;17486;46.738;7.622;2023-01-26T07:10:38;135.05;;;81.50;;
30743;SDS011;17486;46.738;7.622;2023-01-26T07:13:04;114.57;;;66.97;;
30743;SDS011;17486;46.738;7.622;2023-01-26T07:15:30;69.00;;;39.05;;
30743;SDS011;17486;46.738;7.622;2023-01-26T07:17:56;43.88;;;26.05;;
30743;SDS011;17486;46.738;7.622;2023-01-26T07:20:22;39.13;;;22.83;;
30743;SDS011;17486;46.738;7.622;2023-01-26T07:22:48;69.70;;;43.15;;
30743;SDS011;17486;46.738;7.622;2023-01-26T07:25:14;134.55;;;81.15;;
30743;SDS011;17486;46.738;7.622;2023-01-26T07:27:40;301.35;;;173.80;;
30743;SDS011;17486;46.738;7.622;2023-01-26T07:30:06;207.93;;;112.90;;
30743;SDS011;17486;46.738;7.622;2023-01-26T07:32:32;112.95;;;59.33;;
30743;SDS011;17486;46.738;7.622;2023-01-26T07:34:57;65.13;;;34.95;;
30743;SDS011;17486;46.738;7.622;2023-01-26T07:37:26;44.88;;;25.30;;
30743;SDS011;17486;46.738;7.622;2023-01-26T07:39:52;36.90;;;20.60;;
30743;SDS011;17486;46.738;7.622;2023-01-26T07:42:17;35.92;;;20.50;;
30743;SDS011;17486;46.738;7.622;2023-01-26T07:44:43;36.47;;;20.80;;
30743;SDS011;17486;46.738;7.622;2023-01-26T07:47:08;36.63;;;20.55;;
30743;SDS011;17486;46.738;7.622;2023-01-26T07:49:33;36.00;;;20.30;;
30743;SDS011;17486;46.738;7.622;2023-01-26T07:51:59;33.03;;;19.83;;
30743;SDS011;17486;46.738;7.622;2023-01-26T07:54:24;36.22;;;21.10;;
30743;SDS011;17486;46.738;7.622;2023-01-26T07:56:50;37.88;;;21.13;;
30743;SDS011;17486;46.738;7.622;2023-01-26T07:59:17;33.90;;;20.42;;
30743;SDS011;17486;46.738;7.622;2023-01-26T08:01:42;33.45;;;20.02;;
30743;SDS011;17486;46.738;7.622;2023-01-26T08:04:08;36.17;;;20.30;;
30743;SDS011;17486;46.738;7.622;2023-01-26T08:06:33;34.95;;;20.15;;
30743;SDS011;17486;46.738;7.622;2023-01-26T08:08:59;34.95;;;20.73;;
30743;SDS011;17486;46.738;7.622;2023-01-26T08:11:24;36.17;;;20.60;;
30743;SDS011;17486;46.738;7.622;2023-01-26T08:13:50;35.72;;;21.15;;
30743;SDS011;17486;46.738;7.622;2023-01-26T08:16:16;154.02;;;95.47;;
30743;SDS011;17486;46.738;7.622;2023-01-26T08:18:43;120.85;;;72.38;;
30743;SDS011;17486;46.738;7.622;2023-01-26T08:21:10;103.05;;;59.90;;
30743;SDS011;17486;46.738;7.622;2023-01-26T08:23:37;107.45;;;62.03;;
30743;SDS011;17486;46.738;7.622;2023-01-26T08:26:04;77.20;;;42.55;;
30743;SDS011;17486;46.738;7.622;2023-01-26T08:28:34;49.85;;;28.50;;
30743;SDS011;17486;46.738;7.622;2023-01-26T08:31:04;44.63;;;23.67;;
30743;SDS011;17486;46.738;7.622;2023-01-26T08:33:31;31.75;;;18.85;;
30743;SDS011;17486;46.738;7.622;2023-01-26T08:36:04;35.90;;;20.35;;
30743;SDS011;17486;46.738;7.622;2023-01-26T08:38:32;35.33;;;18.92;;
30743;SDS011;17486;46.738;7.622;2023-01-26T08:40:59;33.20;;;20.25;;
30743;SDS011;17486;46.738;7.622;2023-01-26T08:43:25;31.33;;;19.48;;
30743;SDS011;17486;46.738;7.622;2023-01-26T08:45:51;34.35;;;19.95;;
30743;SDS011;17486;46.738;7.622;2023-01-26T08:48:16;31.85;;;19.85;;
30743;SDS011;17486;46.738;7.622;2023-01-26T08:50:42;36.10;;;19.50;;
30743;SDS011;17486;46.738;7.622;2023-01-26T08:53:08;36.58;;;21.17;;
30743;SDS011;17486;46.738;7.622;2023-01-26T08:55:34;36.28;;;21.70;;
30743;SDS011;17486;46.738;7.622;2023-01-26T08:57:59;36.42;;;20.95;;
30743;SDS011;17486;46.738;7.622;2023-01-26T09:00:25;36.50;;;20.67;;
30743;SDS011;17486;46.738;7.622;2023-01-26T09:02:57;36.10;;;21.33;;
30743;SDS011;17486;46.738;7.622;2023-01-26T09:05:24;30.83;;;19.63;;
30743;SDS011;17486;46.738;7.622;2023-01-26T09:07:49;121.47;;;72.97;;
30743;SDS011;17486;46.738;7.622;2023-01-26T09:10:14;182.15;;;110.90;;
30743;SDS011;17486;46.738;7.622;2023-01-26T09:12:40;156.27;;;88.35;;
30743;SDS011;17486;46.738;7.622;2023-01-26T09:15:06;100.45;;;55.00;;
30743;SDS011;17486;46.738;7.622;2023-01-26T09:17:31;79.97;;;45.13;;
30743;SDS011;17486;46.738;7.622;2023-01-26T09:19:57;53.38;;;30.25;;
30743;SDS011;17486;46.738;7.622;2023-01-26T09:22:22;39.65;;;24.00;;
30743;SDS011;17486;46.738;7.622;2023-01-26T09:24:48;36.45;;;21.88;;
30743;SDS011;17486;46.738;7.622;2023-01-26T09:27:13;34.70;;;19.83;;
30743;SDS011;17486;46.738;7.622;2023-01-26T09:29:38;35.15;;;21.20;;
30743;SDS011;17486;46.738;7.622;2023-01-26T09:32:04;35.97;;;20.63;;
30743;SDS011;17486;46.738;7.622;2023-01-26T09:34:29;34.85;;;20.50;;
30743;SDS011;17486;46.738;7.622;2023-01-26T09:36:55;103.97;;;67.80;;
30743;SDS011;17486;46.738;7.622;2023-01-26T09:39:21;141.55;;;83.05;;
30743;SDS011;17486;46.738;7.622;2023-01-26T09:44:36;281.20;;;175.50;;
30743;SDS011;17486;46.738;7.622;2023-01-26T09:47:17;158.32;;;90.50;;
30743;SDS011;17486;46.738;7.622;2023-01-26T09:49:50;78.05;;;46.13;;
30743;SDS011;17486;46.738;7.622;2023-01-26T09:55:07;37.22;;;21.95;;
30743;SDS011;17486;46.738;7.622;2023-01-26T10:03:11;31.25;;;19.38;;
30743;SDS011;17486;46.738;7.622;2023-01-26T10:05:44;35.97;;;20.65;;
30743;SDS011;17486;46.738;7.622;2023-01-26T10:08:16;33.80;;;19.13;;
30743;SDS011;17486;46.738;7.622;2023-01-26T10:10:44;37.38;;;20.33;;
30743;SDS011;17486;46.738;7.622;2023-01-26T10:13:14;37.30;;;21.67;;
30743;SDS011;17486;46.738;7.622;2023-01-26T10:15:41;32.47;;;19.60;;
30743;SDS011;17486;46.738;7.622;2023-01-26T10:18:17;33.92;;;19.52;;
30743;SDS011;17486;46.738;7.622;2023-01-26T10:20:46;31.20;;;18.63;;
30743;SDS011;17486;46.738;7.622;2023-01-26T10:23:16;37.33;;;21.92;;
30743;SDS011;17486;46.738;7.622;2023-01-26T10:25:46;34.72;;;20.98;;
30743;SDS011;17486;46.738;7.622;2023-01-26T10:28:24;32.92;;;18.60;;
30743;SDS011;17486;46.738;7.622;2023-01-26T10:30:53;35.72;;;20.30;;
30743;SDS011;17486;46.738;7.622;2023-01-26T10:33:22;33.28;;;20.50;;
30743;SDS011;17486;46.738;7.622;2023-01-26T10:35:48;30.48;;;18.63;;
30743;SDS011;17486;46.738;7.622;2023-01-26T10:38:56;34.95;;;20.00;;
30743;SDS011;17486;46.738;7.622;2023-01-26T10:43:30;125.90;;;74.53;;
30743;SDS011;17486;46.738;7.622;2023-01-26T10:46:00;142.40;;;84.03;;
30743;SDS011;17486;46.738;7.622;2023-01-26T10:48:27;132.30;;;76.45;;
30743;SDS011;17486;46.738;7.622;2023-01-26T10:50:53;78.13;;;45.60;;
30743;SDS011;17486;46.738;7.622;2023-01-26T10:53:23;47.70;;;28.30;;
30743;SDS011;17486;46.738;7.622;2023-01-26T10:56:00;39.63;;;23.20;;
30743;SDS011;17486;46.738;7.622;2023-01-26T10:58:40;35.45;;;20.27;;
30743;SDS011;17486;46.738;7.622;2023-01-26T11:01:11;34.42;;;21.40;;
30743;SDS011;17486;46.738;7.622;2023-01-26T11:03:39;32.67;;;20.17;;
30743;SDS011;17486;46.738;7.622;2023-01-26T11:06:10;34.53;;;20.30;;
30743;SDS011;17486;46.738;7.622;2023-01-26T11:08:38;32.92;;;19.13;;
30743;SDS011;17486;46.738;7.622;2023-01-26T11:11:04;32.22;;;19.05;;
30743;SDS011;17486;46.738;7.622;2023-01-26T11:13:34;34.08;;;19.85;;
30743;SDS011;17486;46.738;7.622;2023-01-26T11:16:08;31.38;;;19.63;;
30743;SDS011;17486;46.738;7.622;2023-01-26T11:26:43;30.73;;;18.90;;
30743;SDS011;17486;46.738;7.622;2023-01-26T11:29:35;32.30;;;19.38;;
30743;SDS011;17486;46.738;7.622;2023-01-26T11:37:47;34.17;;;20.52;;
30743;SDS011;17486;46.738;7.622;2023-01-26T11:49:03;33.47;;;20.50;;
30743;SDS011;17486;46.738;7.622;2023-01-26T11:57:46;34.85;;;20.60;;
30743;SDS011;17486;46.738;7.622;2023-01-26T12:02:52;31.75;;;20.38;;
30743;SDS011;17486;46.738;7.622;2023-01-26T12:05:27;33.17;;;19.23;;
30743;SDS011;17486;46.738;7.622;2023-01-26T12:08:06;29.33;;;18.67;;
30743;SDS011;17486;46.738;7.622;2023-01-26T12:10:46;29.67;;;18.85;;
30743;SDS011;17486;46.738;7.622;2023-01-26T12:13:17;29.85;;;19.35;;
30743;SDS011;17486;46.738;7.622;2023-01-26T12:15:53;31.70;;;19.42;;
30743;SDS011;17486;46.738;7.622;2023-01-26T12:18:28;30.80;;;19.02;;
30743;SDS011;17486;46.738;7.622;2023-01-26T12:21:06;31.35;;;18.85;;
30743;SDS011;17486;46.738;7.622;2023-01-26T12:26:16;29.77;;;18.45;;
30743;SDS011;17486;46.738;7.622;2023-01-26T12:28:58;31.10;;;18.73;;
30743;SDS011;17486;46.738;7.622;2023-01-26T12:33:56;31.87;;;19.87;;
30743;SDS011;17486;46.738;7.622;2023-01-26T12:41:36;28.83;;;18.83;;
30743;SDS011;17486;46.738;7.622;2023-01-26T12:46:50;30.88;;;18.52;;
30743;SDS011;17486;46.738;7.622;2023-01-26T12:49:42;30.95;;;19.90;;
30743;SDS011;17486;46.738;7.622;2023-01-26T12:52:36;31.67;;;19.50;;
30743;SDS011;17486;46.738;7.622;2023-01-26T12:55:27;28.65;;;17.58;;
30743;SDS011;17486;46.738;7.622;2023-01-26T12:57:57;32.05;;;18.42;;
30743;SDS011;17486;46.738;7.622;2023-01-26T13:00:33;29.83;;;17.88;;
30743;SDS011;17486;46.738;7.622;2023-01-26T13:08:48;28.08;;;17.95;;
30743;SDS011;17486;46.738;7.622;2023-01-26T13:11:40;30.25;;;18.05;;
30743;SDS011;17486;46.738;7.622;2023-01-26T13:16:56;32.20;;;19.80;;
30743;SDS011;17486;46.738;7.622;2023-01-26T13:22:54;34.90;;;20.40;;
30743;SDS011;17486;46.738;7.622;2023-01-26T13:25:27;30.67;;;19.60;;
30743;SDS011;17486;46.738;7.622;2023-01-26T13:27:57;33.72;;;21.42;;
30743;SDS011;17486;46.738;7.622;2023-01-26T13:32:51;31.90;;;19.50;;
30743;SDS011;17486;46.738;7.622;2023-01-26T13:35:19;32.67;;;19.02;;
30743;SDS011;17486;46.738;7.622;2023-01-26T13:40:32;29.40;;;18.83;;
30743;SDS011;17486;46.738;7.622;2023-01-26T13:48:25;27.33;;;18.27;;
30743;SDS011;17486;46.738;7.622;2023-01-26T13:50:59;31.65;;;19.65;;
30743;SDS011;17486;46.738;7.622;2023-01-26T13:53:38;28.77;;;17.88;;
30743;SDS011;17486;46.738;7.622;2023-01-26T14:01:31;27.63;;;17.73;;
30743;SDS011;17486;46.738;7.622;2023-01-26T14:04:01;30.73;;;18.27;;
30743;SDS011;17486;46.738;7.622;2023-01-26T14:06:28;28.38;;;17.90;;
30743;SDS011;17486;46.738;7.622;2023-01-26T14:08:54;28.45;;;17.83;;
30743;SDS011;17486;46.738;7.622;2023-01-26T14:11:22;27.02;;;16.95;;
30743;SDS011;17486;46.738;7.622;2023-01-26T14:13:53;28.83;;;17.60;;
30743;SDS011;17486;46.738;7.622;2023-01-26T14:16:24;28.48;;;17.63;;
30743;SDS011;17486;46.738;7.622;2023-01-26T14:19:13;27.80;;;17.10;;
30743;SDS011;17486;46.738;7.622;2023-01-26T14:21:45;29.77;;;17.35;;
30743;SDS011;17486;46.738;7.622;2023-01-26T14:24:12;30.23;;;18.80;;
30743;SDS011;17486;46.738;7.622;2023-01-26T14:26:38;26.63;;;17.08;;
30743;SDS011;17486;46.738;7.622;2023-01-26T14:29:09;31.17;;;18.58;;
30743;SDS011;17486;46.738;7.622;2023-01-26T14:31:35;30.70;;;18.23;;
30743;SDS011;17486;46.738;7.622;2023-01-26T14:34:01;28.73;;;16.95;;
30743;SDS011;17486;46.738;7.622;2023-01-26T14:36:34;28.42;;;17.65;;
30743;SDS011;17486;46.738;7.622;2023-01-26T14:39:09;29.20;;;17.98;;
30743;SDS011;17486;46.738;7.622;2023-01-26T14:41:40;27.10;;;17.77;;
30743;SDS011;17486;46.738;7.622;2023-01-26T14:44:07;31.52;;;18.75;;
30743;SDS011;17486;46.738;7.622;2023-01-26T14:49:09;32.03;;;18.88;;
30743;SDS011;17486;46.738;7.622;2023-01-26T14:51:43;30.35;;;18.50;;
30743;SDS011;17486;46.738;7.622;2023-01-26T14:54:13;28.42;;;18.40;;
30743;SDS011;17486;46.738;7.622;2023-01-26T14:56:42;28.83;;;18.15;;
30743;SDS011;17486;46.738;7.622;2023-01-26T14:59:18;26.67;;;17.00;;
30743;SDS011;17486;46.738;7.622;2023-01-26T15:01:46;30.08;;;18.00;;
30743;SDS011;17486;46.738;7.622;2023-01-26T15:04:34;28.77;;;18.08;;
30743;SDS011;17486;46.738;7.622;2023-01-26T15:09:58;25.25;;;16.75;;
30743;SDS011;17486;46.738;7.622;2023-01-26T15:12:23;29.02;;;17.85;;
30743;SDS011;17486;46.738;7.622;2023-01-26T15:14:56;30.45;;;18.42;;
30743;SDS011;17486;46.738;7.622;2023-01-26T15:17:39;29.58;;;18.17;;
30743;SDS011;17486;46.738;7.622;2023-01-26T15:22:40;30.17;;;18.83;;
30743;SDS011;17486;46.738;7.622;2023-01-26T15:25:16;28.15;;;17.77;;
30743;SDS011;17486;46.738;7.622;2023-01-26T15:27:48;32.88;;;18.98;;
30743;SDS011;17486;46.738;7.622;2023-01-26T15:30:19;30.20;;;17.80;;
30743;SDS011;17486;46.738;7.622;2023-01-26T15:32:49;31.43;;;19.07;;
30743;SDS011;17486;46.738;7.622;2023-01-26T15:35:22;31.27;;;18.42;;
30743;SDS011;17486;46.738;7.622;2023-01-26T15:37:48;32.28;;;19.73;;
30743;SDS011;17486;46.738;7.622;2023-01-26T15:40:22;33.10;;;20.23;;
30743;SDS011;17486;46.738;7.622;2023-01-26T15:42:48;32.40;;;18.92;;
30743;SDS011;17486;46.738;7.622;2023-01-26T15:45:22;31.65;;;19.77;;
30743;SDS011;17486;46.738;7.622;2023-01-26T15:47:49;29.33;;;18.40;;
30743;SDS011;17486;46.738;7.622;2023-01-26T15:50:15;28.55;;;18.55;;
30743;SDS011;17486;46.738;7.622;2023-01-26T15:52:41;28.83;;;18.42;;
30743;SDS011;17486;46.738;7.622;2023-01-26T15:55:17;31.70;;;19.25;;
30743;SDS011;17486;46.738;7.622;2023-01-26T15:57:45;32.28;;;18.73;;
30743;SDS011;17486;46.738;7.622;2023-01-26T16:00:11;31.42;;;18.42;;
30743;SDS011;17486;46.738;7.622;2023-01-26T16:02:37;30.40;;;18.83;;
30743;SDS011;17486;46.738;7.622;2023-01-26T16:05:03;30.23;;;18.00;;
30743;SDS011;17486;46.738;7.622;2023-01-26T16:07:28;28.83;;;17.60;;
30743;SDS011;17486;46.738;7.622;2023-01-26T16:09:54;31.05;;;18.15;;
30743;SDS011;17486;46.738;7.622;2023-01-26T16:12:19;28.50;;;17.77;;
30743;SDS011;17486;46.738;7.622;2023-01-26T16:14:44;35.17;;;20.10;;